createdAt,value
2017-11-13T00:00:09.898Z,983.98
2017-11-13T00:01:09.922Z,984.03
2017-11-13T00:02:09.954Z,984.01
2017-11-13T00:03:09.988Z,984.05
2017-11-13T00:04:10.022Z,984.03
2017-11-13T00:05:10.062Z,984.07
2017-11-13T00:06:10.085Z,984.03
2017-11-13T00:07:10.118Z,984.06
2017-11-13T00:08:10.163Z,984.08
2017-11-13T00:09:10.182Z,984.09
2017-11-13T00:10:10.218Z,984.19
2017-11-13T00:11:10.249Z,984.17
2017-11-13T00:12:10.282Z,984.19
2017-11-13T00:13:10.314Z,984.16
2017-11-13T00:14:10.343Z,984.23
2017-11-13T00:15:10.388Z,984.20
2017-11-13T00:16:10.411Z,984.25
2017-11-13T00:17:10.440Z,984.25
2017-11-13T00:18:10.474Z,984.22
2017-11-13T00:19:10.508Z,984.25
2017-11-13T00:20:10.541Z,984.31
2017-11-13T00:21:10.578Z,984.30
2017-11-13T00:22:10.603Z,984.30
2017-11-13T00:23:10.640Z,984.27
2017-11-13T00:24:10.672Z,984.33
2017-11-13T00:25:10.705Z,984.34
2017-11-13T00:26:10.736Z,984.36
2017-11-13T00:27:10.769Z,984.41
2017-11-13T00:28:10.803Z,984.43
2017-11-13T00:29:10.841Z,984.44
2017-11-13T00:30:10.869Z,984.46
2017-11-13T00:31:10.900Z,984.46
2017-11-13T00:32:10.932Z,984.48
2017-11-13T00:33:10.965Z,984.55
2017-11-13T00:34:11.013Z,984.56
2017-11-13T00:35:11.030Z,984.58
2017-11-13T00:36:11.068Z,984.59
2017-11-13T00:37:11.098Z,984.56
2017-11-13T00:38:11.131Z,984.57
2017-11-13T00:39:11.161Z,984.63
2017-11-13T00:40:11.195Z,984.61
2017-11-13T00:41:11.226Z,984.63
2017-11-13T00:42:11.261Z,984.67
2017-11-13T00:43:11.290Z,984.63
2017-11-13T00:44:11.325Z,984.67
2017-11-13T00:45:11.361Z,984.65
2017-11-13T00:46:11.393Z,984.69
2017-11-13T00:47:11.421Z,984.70
2017-11-13T00:48:11.456Z,984.68
2017-11-13T00:49:11.486Z,984.71
2017-11-13T00:50:11.519Z,984.73
2017-11-13T00:51:11.551Z,984.71
2017-11-13T00:52:11.590Z,984.74
2017-11-13T00:53:11.616Z,984.74
2017-11-13T00:54:11.650Z,984.70
2017-11-13T00:55:11.694Z,984.75
2017-11-13T00:56:11.722Z,984.74
2017-11-13T00:57:11.752Z,984.79
2017-11-13T00:58:11.781Z,984.80
2017-11-13T00:59:11.815Z,984.85
2017-11-13T01:00:11.846Z,984.85
2017-11-13T01:01:11.893Z,984.87
2017-11-13T01:02:11.917Z,984.89
2017-11-13T01:03:11.945Z,984.88
2017-11-13T01:04:12.082Z,984.92
2017-11-13T01:05:12.011Z,984.87
2017-11-13T01:06:12.094Z,984.84
2017-11-13T01:07:12.079Z,984.88
2017-11-13T01:08:12.119Z,984.89
2017-11-13T01:09:12.143Z,984.94
2017-11-13T01:10:12.181Z,984.88
2017-11-13T01:11:12.210Z,984.91
2017-11-13T01:12:12.242Z,984.82
2017-11-13T01:13:12.282Z,984.88
2017-11-13T01:14:12.307Z,984.89
2017-11-13T01:15:12.341Z,984.90
2017-11-13T01:16:12.373Z,984.90
2017-11-13T01:17:12.405Z,984.92
2017-11-13T01:18:12.437Z,984.92
2017-11-13T01:19:12.472Z,984.96
2017-11-13T01:20:12.504Z,984.96
2017-11-13T01:21:12.559Z,984.99
2017-11-13T01:22:12.575Z,984.98
2017-11-13T01:23:12.606Z,984.99
2017-11-13T01:24:12.644Z,985.03
2017-11-13T01:25:12.674Z,985.00
2017-11-13T01:26:12.704Z,985.01
2017-11-13T01:27:12.736Z,984.97
2017-11-13T01:28:12.772Z,985.00
2017-11-13T01:29:12.802Z,984.99
2017-11-13T01:30:12.833Z,985.01
2017-11-13T01:31:12.868Z,985.02
2017-11-13T01:32:12.903Z,985.02
2017-11-13T01:33:12.933Z,985.07
2017-11-13T01:34:12.968Z,985.06
2017-11-13T01:35:12.998Z,985.05
2017-11-13T01:36:13.032Z,985.04
2017-11-13T01:37:13.067Z,985.06
2017-11-13T01:38:13.098Z,985.11
2017-11-13T01:39:13.147Z,985.10
2017-11-13T01:40:13.164Z,985.13
2017-11-13T01:41:13.197Z,985.16
2017-11-13T01:42:13.236Z,985.13
2017-11-13T01:43:13.267Z,985.16
2017-11-13T01:44:13.299Z,985.17
2017-11-13T01:45:13.328Z,985.16
2017-11-13T01:46:13.365Z,985.21
2017-11-13T01:47:13.398Z,985.24
2017-11-13T01:48:13.429Z,985.24
2017-11-13T01:49:13.465Z,985.23
2017-11-13T01:50:13.495Z,985.26
2017-11-13T01:51:13.530Z,985.25
2017-11-13T01:52:13.565Z,985.25
2017-11-13T01:53:13.669Z,985.26
2017-11-13T01:54:13.634Z,985.26
2017-11-13T01:55:13.665Z,985.26
2017-11-13T01:56:13.693Z,985.25
2017-11-13T01:57:13.737Z,985.28
2017-11-13T01:58:13.760Z,985.31
2017-11-13T01:59:13.792Z,985.30
2017-11-13T02:00:13.827Z,985.30
2017-11-13T02:01:13.857Z,985.32
2017-11-13T02:02:13.941Z,985.36
2017-11-13T02:03:13.925Z,985.33
2017-11-13T02:04:14.014Z,985.38
2017-11-13T02:05:13.992Z,985.39
2017-11-13T02:06:14.032Z,985.40
2017-11-13T02:07:14.059Z,985.39
2017-11-13T02:08:14.090Z,985.38
2017-11-13T02:09:14.126Z,985.39
2017-11-13T02:10:14.157Z,985.42
2017-11-13T02:11:14.200Z,985.42
2017-11-13T02:12:14.232Z,985.41
2017-11-13T02:13:14.307Z,985.41
2017-11-13T02:14:14.289Z,985.42
2017-11-13T02:15:14.320Z,985.44
2017-11-13T02:16:14.358Z,985.42
2017-11-13T02:17:14.389Z,985.46
2017-11-13T02:18:14.421Z,985.44
2017-11-13T02:19:14.455Z,985.46
2017-11-13T02:20:14.487Z,985.48
2017-11-13T02:21:14.522Z,985.47
2017-11-13T02:22:14.556Z,985.51
2017-11-13T02:23:14.587Z,985.54
2017-11-13T02:24:14.619Z,985.57
2017-11-13T02:25:14.657Z,985.58
2017-11-13T02:26:14.691Z,985.56
2017-11-13T02:27:14.719Z,985.62
2017-11-13T02:28:14.752Z,985.62
2017-11-13T02:29:14.786Z,985.62
2017-11-13T02:30:14.821Z,985.67
2017-11-13T02:31:14.853Z,985.68
2017-11-13T02:32:14.895Z,985.73
2017-11-13T02:33:14.917Z,985.75
2017-11-13T02:34:14.952Z,985.75
2017-11-13T02:35:14.988Z,985.77
2017-11-13T02:36:15.021Z,985.79
2017-11-13T02:37:15.050Z,985.78
2017-11-13T02:38:15.082Z,985.81
2017-11-13T02:39:15.119Z,985.86
2017-11-13T02:40:15.152Z,985.90
2017-11-13T02:41:15.184Z,985.88
2017-11-13T02:42:15.218Z,985.91
2017-11-13T02:43:15.251Z,985.90
2017-11-13T02:44:15.286Z,985.93
2017-11-13T02:45:15.318Z,985.92
2017-11-13T02:46:15.358Z,985.97
2017-11-13T02:47:15.388Z,986.02
2017-11-13T02:48:15.417Z,986.01
2017-11-13T02:49:15.548Z,986.07
2017-11-13T02:50:15.490Z,986.09
2017-11-13T02:51:15.518Z,986.10
2017-11-13T02:52:15.549Z,986.08
2017-11-13T02:53:15.593Z,986.15
2017-11-13T02:54:15.615Z,986.19
2017-11-13T02:55:15.649Z,986.22
2017-11-13T02:56:15.685Z,986.22
2017-11-13T02:57:15.719Z,986.21
2017-11-13T02:58:15.881Z,986.24
2017-11-13T02:59:15.781Z,986.30
2017-11-13T03:00:15.822Z,986.30
2017-11-13T03:01:15.849Z,986.29
2017-11-13T03:02:15.884Z,986.35
2017-11-13T03:03:15.915Z,986.35
2017-11-13T03:04:15.949Z,986.35
2017-11-13T03:05:15.979Z,986.33
2017-11-13T03:06:16.014Z,986.29
2017-11-13T03:07:16.049Z,986.30
2017-11-13T03:08:16.080Z,986.31
2017-11-13T03:09:16.163Z,986.34
2017-11-13T03:10:16.149Z,986.36
2017-11-13T03:11:16.179Z,986.38
2017-11-13T03:12:16.219Z,986.40
2017-11-13T03:13:16.244Z,986.42
2017-11-13T03:14:16.279Z,986.42
2017-11-13T03:15:16.311Z,986.48
2017-11-13T03:16:16.344Z,986.47
2017-11-13T03:17:16.380Z,986.46
2017-11-13T03:18:16.409Z,986.45
2017-11-13T03:19:16.448Z,986.45
2017-11-13T03:20:16.480Z,986.45
2017-11-13T03:21:16.510Z,986.50
2017-11-13T03:22:16.542Z,986.52
2017-11-13T03:23:16.574Z,986.55
2017-11-13T03:24:16.609Z,986.55
2017-11-13T03:25:16.644Z,986.57
2017-11-13T03:26:16.680Z,986.59
2017-11-13T03:27:16.711Z,986.59
2017-11-13T03:28:16.743Z,986.61
2017-11-13T03:29:16.773Z,986.68
2017-11-13T03:30:16.811Z,986.69
2017-11-13T03:31:16.844Z,986.69
2017-11-13T03:32:16.886Z,986.76
2017-11-13T03:33:16.906Z,986.77
2017-11-13T03:34:16.940Z,986.80
2017-11-13T03:35:16.974Z,986.79
2017-11-13T03:36:17.006Z,986.83
2017-11-13T03:37:17.042Z,986.88
2017-11-13T03:38:17.075Z,986.84
2017-11-13T03:39:17.115Z,986.85
2017-11-13T03:40:17.154Z,986.84
2017-11-13T03:41:17.171Z,986.85
2017-11-13T03:42:17.205Z,986.84
2017-11-13T03:43:17.241Z,986.89
2017-11-13T03:44:17.272Z,986.91
2017-11-13T03:45:17.302Z,986.89
2017-11-13T03:46:17.336Z,986.89
2017-11-13T03:47:17.373Z,986.91
2017-11-13T03:48:17.405Z,986.94
2017-11-13T03:49:17.441Z,986.92
2017-11-13T03:50:17.465Z,986.92
2017-11-13T03:51:17.501Z,986.89
2017-11-13T03:52:17.536Z,986.98
2017-11-13T03:53:17.570Z,986.98
2017-11-13T03:54:17.602Z,986.96
2017-11-13T03:55:17.634Z,987.00
2017-11-13T03:56:17.694Z,987.06
2017-11-13T03:57:17.702Z,987.04
2017-11-13T03:58:17.742Z,987.04
2017-11-13T03:59:17.766Z,987.02
2017-11-13T04:00:17.809Z,986.98
2017-11-13T04:01:17.835Z,987.01
2017-11-13T04:02:17.871Z,987.05
2017-11-13T04:03:17.898Z,987.03
2017-11-13T04:04:17.932Z,987.05
2017-11-13T04:05:18.074Z,987.05
2017-11-13T04:06:18.001Z,987.01
2017-11-13T04:07:18.032Z,987.05
2017-11-13T04:08:18.069Z,987.09
2017-11-13T04:09:18.095Z,987.10
2017-11-13T04:10:18.133Z,987.10
2017-11-13T04:11:18.163Z,987.16
2017-11-13T04:12:18.202Z,987.18
2017-11-13T04:13:18.229Z,987.15
2017-11-13T04:14:18.318Z,987.17
2017-11-13T04:15:18.295Z,987.20
2017-11-13T04:16:18.382Z,987.18
2017-11-13T04:17:18.363Z,987.20
2017-11-13T04:18:18.396Z,987.23
2017-11-13T04:19:18.430Z,987.21
2017-11-13T04:20:18.462Z,987.19
2017-11-13T04:21:18.493Z,987.21
2017-11-13T04:22:18.529Z,987.21
2017-11-13T04:23:18.558Z,987.26
2017-11-13T04:24:18.594Z,987.24
2017-11-13T04:25:18.624Z,987.28
2017-11-13T04:26:18.659Z,987.34
2017-11-13T04:27:18.694Z,987.30
2017-11-13T04:28:18.724Z,987.32
2017-11-13T04:29:18.757Z,987.37
2017-11-13T04:30:18.791Z,987.33
2017-11-13T04:31:18.825Z,987.37
2017-11-13T04:32:18.859Z,987.36
2017-11-13T04:33:18.889Z,987.34
2017-11-13T04:34:18.937Z,987.38
2017-11-13T04:35:18.953Z,987.41
2017-11-13T04:36:18.987Z,987.47
2017-11-13T04:37:19.024Z,987.43
2017-11-13T04:38:19.054Z,987.46
2017-11-13T04:39:19.087Z,987.46
2017-11-13T04:40:19.124Z,987.47
2017-11-13T04:41:19.154Z,987.47
2017-11-13T04:42:19.186Z,987.50
2017-11-13T04:43:19.220Z,987.48
2017-11-13T04:44:19.257Z,987.52
2017-11-13T04:45:19.285Z,987.55
2017-11-13T04:46:19.317Z,987.55
2017-11-13T04:47:19.352Z,987.57
2017-11-13T04:48:19.386Z,987.55
2017-11-13T04:49:19.418Z,987.57
2017-11-13T04:50:19.456Z,987.59
2017-11-13T04:51:19.490Z,987.61
2017-11-13T04:52:19.578Z,987.64
2017-11-13T04:53:19.556Z,987.65
2017-11-13T04:54:19.585Z,987.67
2017-11-13T04:55:19.617Z,987.67
2017-11-13T04:56:19.652Z,987.67
2017-11-13T04:57:19.686Z,987.64
2017-11-13T04:58:19.716Z,987.65
2017-11-13T04:59:19.749Z,987.66
2017-11-13T05:00:19.787Z,987.67
2017-11-13T05:01:19.825Z,987.67
2017-11-13T05:02:19.848Z,987.68
2017-11-13T05:03:19.937Z,987.67
2017-11-13T05:04:19.914Z,987.64
2017-11-13T05:05:19.948Z,987.67
2017-11-13T05:06:19.989Z,987.68
2017-11-13T05:07:20.016Z,987.72
2017-11-13T05:08:20.049Z,987.76
2017-11-13T05:09:20.079Z,987.75
2017-11-13T05:10:20.115Z,987.78
2017-11-13T05:11:20.146Z,987.80
2017-11-13T05:12:20.225Z,987.82
2017-11-13T05:13:20.212Z,987.79
2017-11-13T05:14:20.248Z,987.77
2017-11-13T05:15:20.279Z,987.80
2017-11-13T05:16:20.310Z,987.77
2017-11-13T05:17:20.345Z,987.79
2017-11-13T05:18:20.380Z,987.83
2017-11-13T05:19:20.411Z,987.85
2017-11-13T05:20:20.447Z,987.86
2017-11-13T05:21:20.477Z,987.85
2017-11-13T05:22:20.510Z,987.85
2017-11-13T05:23:20.550Z,987.90
2017-11-13T05:24:20.579Z,987.86
2017-11-13T05:25:20.612Z,987.84
2017-11-13T05:26:20.647Z,987.85
2017-11-13T05:27:20.677Z,987.92
2017-11-13T05:28:20.711Z,987.95
2017-11-13T05:29:20.743Z,987.98
2017-11-13T05:30:20.779Z,987.98
2017-11-13T05:31:20.810Z,988.01
2017-11-13T05:32:20.847Z,987.99
2017-11-13T05:33:20.878Z,987.99
2017-11-13T05:34:20.912Z,987.98
2017-11-13T05:35:20.952Z,987.98
2017-11-13T05:36:20.985Z,987.99
2017-11-13T05:37:21.010Z,988.05
2017-11-13T05:38:21.040Z,988.02
2017-11-13T05:39:21.082Z,988.04
2017-11-13T05:40:21.107Z,988.03
2017-11-13T05:41:21.143Z,988.10
2017-11-13T05:42:21.177Z,988.04
2017-11-13T05:43:21.230Z,988.11
2017-11-13T05:44:21.241Z,988.13
2017-11-13T05:45:21.274Z,988.15
2017-11-13T05:46:21.309Z,988.14
2017-11-13T05:47:21.341Z,988.10
2017-11-13T05:48:21.399Z,988.13
2017-11-13T05:49:21.408Z,988.15
2017-11-13T05:50:21.469Z,988.14
2017-11-13T05:51:21.472Z,988.17
2017-11-13T05:53:21.539Z,988.23
2017-11-13T05:54:21.575Z,988.28
2017-11-13T05:55:21.608Z,988.28
2017-11-13T05:56:21.639Z,988.27
2017-11-13T05:57:21.673Z,988.28
2017-11-13T05:58:21.705Z,988.28
2017-11-13T05:59:21.835Z,988.27
2017-11-13T06:00:21.772Z,988.28
2017-11-13T06:01:21.808Z,988.32
2017-11-13T06:02:21.840Z,988.35
2017-11-13T06:03:21.872Z,988.40
2017-11-13T06:04:21.911Z,988.42
2017-11-13T06:05:21.941Z,988.40
2017-11-13T06:06:21.974Z,988.36
2017-11-13T06:07:22.004Z,988.41
2017-11-13T06:08:22.121Z,988.41
2017-11-13T06:09:22.073Z,988.42
2017-11-13T06:10:22.155Z,988.43
2017-11-13T06:11:22.139Z,988.44
2017-11-13T06:12:22.172Z,988.45
2017-11-13T06:13:22.204Z,988.44
2017-11-13T06:14:22.239Z,988.46
2017-11-13T06:15:22.270Z,988.51
2017-11-13T06:16:22.306Z,988.48
2017-11-13T06:17:22.341Z,988.51
2017-11-13T06:18:22.370Z,988.56
2017-11-13T06:19:22.413Z,988.59
2017-11-13T06:20:22.441Z,988.62
2017-11-13T06:21:22.471Z,988.65
2017-11-13T06:22:22.502Z,988.68
2017-11-13T06:23:22.536Z,988.72
2017-11-13T06:24:22.571Z,988.76
2017-11-13T06:25:22.604Z,988.77
2017-11-13T06:26:22.637Z,988.78
2017-11-13T06:27:22.670Z,988.79
2017-11-13T06:28:22.702Z,988.83
2017-11-13T06:29:22.737Z,988.86
2017-11-13T06:30:22.771Z,988.88
2017-11-13T06:31:22.803Z,988.89
2017-11-13T06:32:22.836Z,988.89
2017-11-13T06:33:22.872Z,988.92
2017-11-13T06:34:22.901Z,988.80
2017-11-13T06:35:22.937Z,988.82
2017-11-13T06:36:22.971Z,988.84
2017-11-13T06:37:23.003Z,988.85
2017-11-13T06:38:23.034Z,988.90
2017-11-13T06:39:23.073Z,988.88
2017-11-13T06:40:23.103Z,988.87
2017-11-13T06:41:23.135Z,988.92
2017-11-13T06:42:23.167Z,988.89
2017-11-13T06:43:23.202Z,988.91
2017-11-13T06:44:23.243Z,988.93
2017-11-13T06:45:23.276Z,988.96
2017-11-13T06:46:23.303Z,988.99
2017-11-13T06:47:23.338Z,988.96
2017-11-13T06:48:23.369Z,989.06
2017-11-13T06:49:23.402Z,989.11
2017-11-13T06:50:23.433Z,989.14
2017-11-13T06:51:23.469Z,989.15
2017-11-13T06:52:23.502Z,989.21
2017-11-13T06:53:23.532Z,989.24
2017-11-13T06:54:23.565Z,989.27
2017-11-13T06:55:23.690Z,989.28
2017-11-13T06:56:23.631Z,989.27
2017-11-13T06:57:23.689Z,989.30
2017-11-13T06:58:23.702Z,989.32
2017-11-13T06:59:23.732Z,989.38
2017-11-13T07:00:23.765Z,989.40
2017-11-13T07:01:23.800Z,989.44
2017-11-13T07:02:23.849Z,989.44
2017-11-13T07:03:23.865Z,989.44
2017-11-13T07:04:23.899Z,989.44
2017-11-13T07:05:23.932Z,989.40
2017-11-13T07:06:23.996Z,989.45
2017-11-13T07:07:23.998Z,989.43
2017-11-13T07:08:24.038Z,989.47
2017-11-13T07:09:24.063Z,989.54
2017-11-13T07:10:24.108Z,989.54
2017-11-13T07:11:24.136Z,989.51
2017-11-13T07:12:24.166Z,989.51
2017-11-13T07:13:24.197Z,989.51
2017-11-13T07:14:24.241Z,989.54
2017-11-13T07:15:24.364Z,989.50
2017-11-13T07:16:24.300Z,989.49
2017-11-13T07:17:24.335Z,989.57
2017-11-13T07:18:24.372Z,989.52
2017-11-13T07:19:24.397Z,989.51
2017-11-13T07:20:24.435Z,989.52
2017-11-13T07:21:24.464Z,989.50
2017-11-13T07:22:24.495Z,989.48
2017-11-13T07:23:24.529Z,989.48
2017-11-13T07:24:24.566Z,989.47
2017-11-13T07:25:24.597Z,989.48
2017-11-13T07:26:24.630Z,989.51
2017-11-13T07:27:24.665Z,989.44
2017-11-13T07:28:24.697Z,989.46
2017-11-13T07:29:24.729Z,989.45
2017-11-13T07:30:24.764Z,989.47
2017-11-13T07:31:24.798Z,989.46
2017-11-13T07:32:24.826Z,989.46
2017-11-13T07:33:24.860Z,989.49
2017-11-13T07:34:24.896Z,989.47
2017-11-13T07:35:24.927Z,989.52
2017-11-13T07:36:24.960Z,989.58
2017-11-13T07:37:24.994Z,989.62
2017-11-13T07:38:25.025Z,989.67
2017-11-13T07:39:25.062Z,989.65
2017-11-13T07:40:25.109Z,989.67
2017-11-13T07:41:25.129Z,989.66
2017-11-13T07:42:25.165Z,989.69
2017-11-13T07:43:25.191Z,989.73
2017-11-13T07:44:25.225Z,989.74
2017-11-13T07:45:25.256Z,989.80
2017-11-13T07:46:25.289Z,989.76
2017-11-13T07:47:25.322Z,989.83
2017-11-13T07:48:25.355Z,989.87
2017-11-13T07:49:25.394Z,989.86
2017-11-13T07:50:25.421Z,989.90
2017-11-13T07:51:25.457Z,989.87
2017-11-13T07:52:25.486Z,989.89
2017-11-13T07:53:25.618Z,989.91
2017-11-13T07:54:25.552Z,989.98
2017-11-13T07:55:25.588Z,990.00
2017-11-13T07:56:25.618Z,989.95
2017-11-13T07:57:25.649Z,989.98
2017-11-13T07:58:25.682Z,990.05
2017-11-13T07:59:25.717Z,990.06
2017-11-13T08:00:25.749Z,990.08
2017-11-13T08:01:25.782Z,990.06
2017-11-13T08:02:25.893Z,990.16
2017-11-13T08:03:25.846Z,990.13
2017-11-13T08:04:25.881Z,990.09
2017-11-13T08:05:25.912Z,990.11
2017-11-13T08:06:25.949Z,990.15
2017-11-13T08:07:25.999Z,990.18
2017-11-13T08:08:26.012Z,990.26
2017-11-13T08:09:26.047Z,990.27
2017-11-13T08:10:26.077Z,990.26
2017-11-13T08:11:26.127Z,990.26
2017-11-13T08:12:26.146Z,990.28
2017-11-13T08:13:26.193Z,990.25
2017-11-13T08:14:26.208Z,990.33
2017-11-13T08:15:26.247Z,990.33
2017-11-13T08:16:26.277Z,990.30
2017-11-13T08:17:26.311Z,990.37
2017-11-13T08:18:26.355Z,990.37
2017-11-13T08:19:26.379Z,990.42
2017-11-13T08:20:26.409Z,990.51
2017-11-13T08:21:26.447Z,990.46
2017-11-13T08:22:26.478Z,990.52
2017-11-13T08:23:26.512Z,990.52
2017-11-13T08:24:26.549Z,990.58
2017-11-13T08:25:26.579Z,990.61
2017-11-13T08:26:26.611Z,990.66
2017-11-13T08:27:26.656Z,990.66
2017-11-13T08:28:26.679Z,990.65
2017-11-13T08:29:26.713Z,990.68
2017-11-13T08:30:26.749Z,990.72
2017-11-13T08:31:26.781Z,990.74
2017-11-13T08:32:26.813Z,990.74
2017-11-13T08:33:26.849Z,990.79
2017-11-13T08:34:26.878Z,990.77
2017-11-13T08:35:26.917Z,990.82
2017-11-13T08:36:26.950Z,990.84
2017-11-13T08:37:26.982Z,990.88
2017-11-13T08:38:27.013Z,990.90
2017-11-13T08:39:27.049Z,990.89
2017-11-13T08:40:27.084Z,990.91
2017-11-13T08:41:27.118Z,990.91
2017-11-13T08:42:27.149Z,990.96
2017-11-13T08:43:27.183Z,990.97
2017-11-13T08:44:27.219Z,991.01
2017-11-13T08:45:27.252Z,990.99
2017-11-13T08:46:27.284Z,991.05
2017-11-13T08:47:27.319Z,991.16
2017-11-13T08:48:27.355Z,991.06
2017-11-13T08:49:27.401Z,991.07
2017-11-13T08:50:27.423Z,991.09
2017-11-13T08:51:27.453Z,991.09
2017-11-13T08:52:27.489Z,991.11
2017-11-13T08:53:27.531Z,991.13
2017-11-13T08:54:27.569Z,991.19
2017-11-13T08:55:27.589Z,991.16
2017-11-13T08:56:27.630Z,991.15
2017-11-13T08:57:27.659Z,991.21
2017-11-13T08:58:27.702Z,991.27
2017-11-13T08:59:27.730Z,991.23
2017-11-13T09:00:27.811Z,991.26
2017-11-13T09:01:27.803Z,991.27
2017-11-13T09:02:27.830Z,991.28
2017-11-13T09:03:27.865Z,991.33
2017-11-13T09:04:27.899Z,991.34
2017-11-13T09:05:27.937Z,991.38
2017-11-13T09:06:27.966Z,991.40
2017-11-13T09:07:28.005Z,991.43
2017-11-13T09:08:28.042Z,991.44
2017-11-13T09:09:28.101Z,991.52
2017-11-13T09:10:28.101Z,991.56
2017-11-13T09:11:28.136Z,991.52
2017-11-13T09:12:28.171Z,991.60
2017-11-13T09:13:28.202Z,991.64
2017-11-13T09:14:28.241Z,991.65
2017-11-13T09:15:28.272Z,991.69
2017-11-13T09:16:28.304Z,991.70
2017-11-13T09:17:28.339Z,991.71
2017-11-13T09:18:28.372Z,991.69
2017-11-13T09:19:28.409Z,991.74
2017-11-13T09:20:28.442Z,991.72
2017-11-13T09:21:28.482Z,991.76
2017-11-13T09:22:28.512Z,991.80
2017-11-13T09:23:28.544Z,991.79
2017-11-13T09:24:28.577Z,991.81
2017-11-13T09:25:28.611Z,991.87
2017-11-13T09:26:28.645Z,991.90
2017-11-13T09:27:28.682Z,991.95
2017-11-13T09:28:28.713Z,991.92
2017-11-13T09:29:28.747Z,991.92
2017-11-13T09:30:28.783Z,991.93
2017-11-13T09:31:28.816Z,991.94
2017-11-13T09:32:28.854Z,992.04
2017-11-13T09:33:28.884Z,992.01
2017-11-13T09:34:28.915Z,992.06
2017-11-13T09:35:28.953Z,992.09
2017-11-13T09:36:28.986Z,992.10
2017-11-13T09:37:29.020Z,992.09
2017-11-13T09:38:29.054Z,992.16
2017-11-13T09:39:29.091Z,992.13
2017-11-13T09:40:29.127Z,992.18
2017-11-13T09:41:29.163Z,992.19
2017-11-13T09:42:29.192Z,992.16
2017-11-13T09:43:29.225Z,992.17
2017-11-13T09:44:29.264Z,992.22
2017-11-13T09:45:29.294Z,992.20
2017-11-13T09:46:29.327Z,992.24
2017-11-13T09:47:29.363Z,992.24
2017-11-13T09:48:29.398Z,992.29
2017-11-13T09:49:29.434Z,992.27
2017-11-13T09:50:29.475Z,992.35
2017-11-13T09:51:29.505Z,992.36
2017-11-13T09:52:29.535Z,992.40
2017-11-13T09:53:29.571Z,992.44
2017-11-13T09:54:29.676Z,992.48
2017-11-13T09:55:29.639Z,992.52
2017-11-13T09:56:29.673Z,992.53
2017-11-13T09:57:29.708Z,992.55
2017-11-13T09:58:29.742Z,992.55
2017-11-13T09:59:29.777Z,992.58
2017-11-13T10:00:29.813Z,992.64
2017-11-13T10:01:29.845Z,992.61
2017-11-13T10:02:29.884Z,992.65
2017-11-13T10:03:29.965Z,992.64
2017-11-13T10:04:29.953Z,992.68
2017-11-13T10:05:29.983Z,992.64
2017-11-13T10:06:30.018Z,992.71
2017-11-13T10:07:30.057Z,992.69
2017-11-13T10:08:30.095Z,992.71
2017-11-13T10:09:30.126Z,992.74
2017-11-13T10:10:30.159Z,992.75
2017-11-13T10:11:30.193Z,992.72
2017-11-13T10:12:30.335Z,992.71
2017-11-13T10:13:30.265Z,992.71
2017-11-13T10:14:30.306Z,992.71
2017-11-13T10:15:30.335Z,992.74
2017-11-13T10:16:30.370Z,992.72
2017-11-13T10:17:30.405Z,992.69
2017-11-13T10:18:30.440Z,992.70
2017-11-13T10:19:30.474Z,992.66
2017-11-13T10:20:30.524Z,992.63
2017-11-13T10:21:30.542Z,992.62
2017-11-13T10:22:30.585Z,992.66
2017-11-13T10:23:30.615Z,992.59
2017-11-13T10:24:30.648Z,992.62
2017-11-13T10:25:30.684Z,992.63
2017-11-13T10:26:30.725Z,992.73
2017-11-13T10:27:30.754Z,992.66
2017-11-13T10:28:30.788Z,992.69
2017-11-13T10:29:30.834Z,992.73
2017-11-13T10:30:30.856Z,992.78
2017-11-13T10:31:30.896Z,992.86
2017-11-13T10:32:30.927Z,992.85
2017-11-13T10:33:30.976Z,992.83
2017-11-13T10:34:30.999Z,992.82
2017-11-13T10:35:31.034Z,992.86
2017-11-13T10:36:31.068Z,992.82
2017-11-13T10:37:31.101Z,992.77
2017-11-13T10:38:31.137Z,992.72
2017-11-13T10:39:31.176Z,992.70
2017-11-13T10:40:31.207Z,992.76
2017-11-13T10:41:31.260Z,992.75
2017-11-13T10:42:31.276Z,992.68
2017-11-13T10:43:31.316Z,992.62
2017-11-13T10:44:31.351Z,992.62
2017-11-13T10:45:31.385Z,992.64
2017-11-13T10:46:31.418Z,992.63
2017-11-13T10:47:31.457Z,992.63
2017-11-13T10:48:31.489Z,992.65
2017-11-13T10:49:31.523Z,992.65
2017-11-13T10:50:31.567Z,992.63
2017-11-13T10:51:31.596Z,992.66
2017-11-13T10:52:31.629Z,992.64
2017-11-13T10:53:31.667Z,992.65
2017-11-13T10:54:31.699Z,992.77
2017-11-13T10:55:31.737Z,992.75
2017-11-13T10:56:31.802Z,992.81
2017-11-13T10:57:31.807Z,992.84
2017-11-13T10:58:31.839Z,992.90
2017-11-13T10:59:31.929Z,992.88
2017-11-13T11:00:31.911Z,992.83
2017-11-13T11:01:31.946Z,992.87
2017-11-13T11:02:31.982Z,992.86
2017-11-13T11:03:32.032Z,992.89
2017-11-13T11:04:32.052Z,992.91
2017-11-13T11:05:32.095Z,992.87
2017-11-13T11:06:32.129Z,992.89
2017-11-13T11:07:32.169Z,992.91
2017-11-13T11:08:32.208Z,992.83
2017-11-13T11:09:32.231Z,992.85
2017-11-13T11:10:32.266Z,992.83
2017-11-13T11:11:32.305Z,992.85
2017-11-13T11:12:32.338Z,992.85
2017-11-13T11:13:32.378Z,992.85
2017-11-13T11:14:32.410Z,992.87
2017-11-13T11:15:32.448Z,992.87
2017-11-13T11:16:32.480Z,992.86
2017-11-13T11:17:32.518Z,992.86
2017-11-13T11:18:32.552Z,992.94
2017-11-13T11:19:32.588Z,992.90
2017-11-13T11:20:32.628Z,992.89
2017-11-13T11:21:32.661Z,992.84
2017-11-13T11:22:32.700Z,992.88
2017-11-13T11:23:32.731Z,992.91
2017-11-13T11:24:32.772Z,992.89
2017-11-13T11:25:32.803Z,992.92
2017-11-13T11:26:32.840Z,992.95
2017-11-13T11:27:32.874Z,992.96
2017-11-13T11:28:32.911Z,992.96
2017-11-13T11:29:32.959Z,993.01
2017-11-13T11:30:32.982Z,993.00
2017-11-13T11:31:33.018Z,992.97
2017-11-13T11:32:33.053Z,992.96
2017-11-13T11:33:33.088Z,992.95
2017-11-13T11:34:33.123Z,992.96
2017-11-13T11:35:33.161Z,992.99
2017-11-13T11:36:33.200Z,993.03
2017-11-13T11:37:33.229Z,992.95
2017-11-13T11:38:33.274Z,993.00
2017-11-13T11:39:33.305Z,993.01
2017-11-13T11:40:33.341Z,993.06
2017-11-13T11:41:33.374Z,993.05
2017-11-13T11:42:33.408Z,993.11
2017-11-13T11:43:33.445Z,993.14
2017-11-13T11:44:33.537Z,993.18
2017-11-13T11:45:33.519Z,993.20
2017-11-13T11:46:33.550Z,993.18
2017-11-13T11:47:33.584Z,993.24
2017-11-13T11:48:33.620Z,993.25
2017-11-13T11:49:33.654Z,993.32
2017-11-13T11:50:33.691Z,993.31
2017-11-13T11:51:33.724Z,993.39
2017-11-13T11:52:33.776Z,993.32
2017-11-13T11:53:33.810Z,993.30
2017-11-13T11:54:33.830Z,993.31
2017-11-13T11:55:33.872Z,993.31
2017-11-13T11:56:33.902Z,993.28
2017-11-13T11:57:33.952Z,993.25
2017-11-13T11:58:33.973Z,993.27
2017-11-13T11:59:34.023Z,993.30
2017-11-13T12:00:34.046Z,993.30
2017-11-13T12:01:34.087Z,993.26
2017-11-13T12:02:34.127Z,993.26
2017-11-13T12:03:34.152Z,993.29
2017-11-13T12:04:34.186Z,993.37
2017-11-13T12:05:34.221Z,993.36
2017-11-13T12:06:34.255Z,993.37
2017-11-13T12:07:34.290Z,993.34
2017-11-13T12:08:34.327Z,993.32
2017-11-13T12:09:34.361Z,993.39
2017-11-13T12:10:34.397Z,993.38
2017-11-13T12:11:34.432Z,993.41
2017-11-13T12:12:34.472Z,993.39
2017-11-13T12:13:34.512Z,993.42
2017-11-13T12:14:34.541Z,993.46
2017-11-13T12:15:34.575Z,993.49
2017-11-13T12:16:34.612Z,993.49
2017-11-13T12:17:34.644Z,993.55
2017-11-13T12:18:34.682Z,993.50
2017-11-13T12:19:34.717Z,993.52
2017-11-13T12:20:34.768Z,993.55
2017-11-13T12:21:34.791Z,993.56
2017-11-13T12:22:34.824Z,993.63
2017-11-13T12:23:34.861Z,993.63
2017-11-13T12:24:34.908Z,993.67
2017-11-13T12:25:34.964Z,993.65
2017-11-13T12:26:34.972Z,993.68
2017-11-13T12:27:35.002Z,993.64
2017-11-13T12:28:35.041Z,993.68
2017-11-13T12:29:35.072Z,993.66